createdAt,value
2023-03-29T00:00:40.365Z,60.85
2023-03-29T00:01:40.387Z,60.85
2023-03-29T00:02:40.418Z,60.74
2023-03-29T00:03:40.544Z,60.95
2023-03-29T00:04:40.336Z,61.05
2023-03-29T00:05:40.332Z,61.36
2023-03-29T00:06:40.291Z,61.57
2023-03-29T00:07:40.307Z,61.78
2023-03-29T00:08:40.292Z,61.57
2023-03-29T00:09:40.289Z,61.36
2023-03-29T00:10:40.256Z,61.26
2023-03-29T00:11:40.286Z,61.03
2023-03-29T00:12:40.230Z,61.44
2023-03-29T00:13:40.257Z,61.44
2023-03-29T00:14:40.211Z,62.37
2023-03-29T00:15:40.246Z,62.37
2023-03-29T00:16:40.225Z,61.86
2023-03-29T00:17:40.210Z,61.76
2023-03-29T00:18:40.164Z,61.44
2023-03-29T00:19:40.186Z,61.44
2023-03-29T00:20:40.154Z,61.03
2023-03-29T00:21:40.160Z,61.76
2023-03-29T00:22:40.127Z,60.82
2023-03-29T00:23:40.149Z,60.27
2023-03-29T00:24:40.107Z,59.86
2023-03-29T00:25:40.123Z,60.06
2023-03-29T00:26:40.081Z,61.00
2023-03-29T00:27:40.115Z,61.83
2023-03-29T00:28:40.059Z,62.97
2023-03-29T00:29:40.066Z,63.07
2023-03-29T00:30:40.045Z,63.59
2023-03-29T00:31:40.128Z,63.69
2023-03-29T00:32:40.062Z,64.11
2023-03-29T00:33:40.046Z,64.11
2023-03-29T00:34:39.994Z,64.31
2023-03-29T00:35:40.031Z,63.79
2023-03-29T00:36:39.976Z,64.00
2023-03-29T00:37:40.027Z,64.45
2023-03-29T00:38:39.963Z,64.76
2023-03-29T00:39:39.998Z,64.76
2023-03-29T00:40:39.961Z,64.34
2023-03-29T00:41:39.941Z,64.76
2023-03-29T00:42:39.923Z,64.03
2023-03-29T00:43:39.935Z,64.14
2023-03-29T00:44:39.914Z,64.14
2023-03-29T00:45:39.911Z,64.65
2023-03-29T00:46:39.955Z,64.76
2023-03-29T00:47:40.000Z,64.55
2023-03-29T00:48:39.856Z,64.14
2023-03-29T00:49:39.883Z,64.17
2023-03-29T00:50:39.847Z,64.06
2023-03-29T00:51:39.841Z,64.48
2023-03-29T00:52:39.818Z,64.79
2023-03-29T00:53:39.816Z,64.89
2023-03-29T00:54:39.792Z,65.00
2023-03-29T00:55:39.804Z,64.89
2023-03-29T00:56:40.157Z,64.58
2023-03-29T00:57:39.806Z,64.58
2023-03-29T00:58:39.745Z,65.62
2023-03-29T00:59:39.773Z,64.06
2023-03-29T01:00:39.729Z,65.31
2023-03-29T01:01:39.733Z,64.69
2023-03-29T01:02:40.003Z,64.48
2023-03-29T01:03:39.751Z,64.06
2023-03-29T01:04:39.692Z,64.37
2023-03-29T01:05:39.689Z,64.48
2023-03-29T01:06:39.762Z,64.48
2023-03-29T01:07:39.684Z,63.85
2023-03-29T01:08:39.670Z,63.54
2023-03-29T01:09:39.661Z,63.54
2023-03-29T01:10:39.630Z,64.17
2023-03-29T01:11:39.630Z,64.89
2023-03-29T01:12:39.598Z,65.00
2023-03-29T01:13:39.605Z,64.58
2023-03-29T01:14:39.585Z,64.58
2023-03-29T01:15:39.614Z,64.48
2023-03-29T01:16:39.595Z,63.23
2023-03-29T01:17:39.622Z,62.61
2023-03-29T01:18:39.535Z,62.92
2023-03-29T01:19:39.540Z,62.92
2023-03-29T01:20:39.523Z,63.34
2023-03-29T01:21:39.546Z,62.71
2023-03-29T01:22:39.496Z,63.34
2023-03-29T01:23:39.501Z,63.13
2023-03-29T01:24:39.479Z,63.13
2023-03-29T01:25:39.478Z,63.02
2023-03-29T01:26:39.456Z,62.92
2023-03-29T01:27:39.483Z,62.82
2023-03-29T01:28:39.446Z,63.23
2023-03-29T01:29:39.450Z,63.44
2023-03-29T01:30:39.406Z,63.34
2023-03-29T01:31:39.468Z,63.75
2023-03-29T01:32:39.453Z,64.06
2023-03-29T01:33:39.398Z,64.17
2023-03-29T01:34:39.385Z,63.96
2023-03-29T01:35:39.361Z,64.69
2023-03-29T01:36:39.362Z,64.69
2023-03-29T01:37:39.339Z,64.89
2023-03-29T01:38:39.357Z,65.31
2023-03-29T01:39:39.322Z,65.72
2023-03-29T01:40:39.320Z,66.55
2023-03-29T01:41:39.410Z,66.65
2023-03-29T01:42:39.312Z,65.83
2023-03-29T01:43:39.277Z,65.41
2023-03-29T01:44:39.282Z,66.03
2023-03-29T01:45:39.327Z,66.44
2023-03-29T01:46:39.461Z,67.69
2023-03-29T01:47:39.304Z,65.93
2023-03-29T01:48:39.236Z,67.17
2023-03-29T01:49:39.221Z,67.48
2023-03-29T01:50:39.224Z,67.69
2023-03-29T01:51:39.198Z,67.69
2023-03-29T01:52:39.191Z,68.10
2023-03-29T01:53:39.162Z,68.41
2023-03-29T01:54:39.167Z,68.00
2023-03-29T01:55:39.152Z,69.24
2023-03-29T01:56:39.231Z,69.35
2023-03-29T01:57:39.131Z,69.35
2023-03-29T01:58:39.148Z,70.49
2023-03-29T01:59:39.102Z,69.97
2023-03-29T02:00:39.105Z,69.56
2023-03-29T02:01:39.146Z,69.35
2023-03-29T02:02:39.227Z,69.45
2023-03-29T02:03:39.097Z,69.76
2023-03-29T02:04:39.066Z,71.01
2023-03-29T02:05:39.134Z,71.01
2023-03-29T02:06:39.041Z,71.32
2023-03-29T02:07:39.028Z,69.97
2023-03-29T02:08:39.043Z,70.07
2023-03-29T02:09:39.002Z,70.70
2023-03-29T02:10:39.028Z,70.90
2023-03-29T02:11:38.980Z,71.32
2023-03-29T02:12:38.983Z,71.73
2023-03-29T02:13:38.973Z,73.08
2023-03-29T02:14:38.962Z,73.49
2023-03-29T02:15:38.971Z,73.91
2023-03-29T02:16:38.953Z,75.57
2023-03-29T02:17:39.001Z,73.49
2023-03-29T02:18:38.912Z,74.11
2023-03-29T02:19:38.902Z,72.77
2023-03-29T02:20:39.139Z,72.88
2023-03-29T02:21:38.865Z,73.08
2023-03-29T02:22:38.902Z,74.53
2023-03-29T02:23:38.860Z,73.32
2023-03-29T02:24:38.849Z,73.11
2023-03-29T02:25:38.840Z,73.84
2023-03-29T02:26:38.829Z,74.22
2023-03-29T02:27:38.827Z,74.05
2023-03-29T02:28:38.810Z,74.01
2023-03-29T02:29:38.785Z,74.77
2023-03-29T02:30:38.807Z,75.60
2023-03-29T02:31:38.863Z,75.60
2023-03-29T02:32:38.802Z,75.19
2023-03-29T02:33:38.750Z,75.50
2023-03-29T02:34:38.746Z,77.47
2023-03-29T02:35:38.769Z,77.23
2023-03-29T02:36:38.758Z,77.54
2023-03-29T02:37:38.697Z,78.78
2023-03-29T02:38:38.725Z,79.10
2023-03-29T02:39:38.677Z,79.71
2023-03-29T02:40:38.682Z,78.99
2023-03-29T02:41:38.650Z,79.71
2023-03-29T02:42:38.686Z,77.64
2023-03-29T02:43:38.634Z,78.06
2023-03-29T02:44:38.655Z,78.99
2023-03-29T02:45:38.613Z,79.30
2023-03-29T02:46:38.663Z,79.47
2023-03-29T02:47:38.630Z,79.41
2023-03-29T02:48:38.615Z,78.89
2023-03-29T02:49:38.605Z,78.33
2023-03-29T02:50:38.615Z,77.61
2023-03-29T02:51:38.565Z,78.37
2023-03-29T02:52:38.584Z,78.85
2023-03-29T02:53:38.532Z,78.23
2023-03-29T02:54:38.551Z,77.92
2023-03-29T02:55:38.520Z,78.54
2023-03-29T02:56:38.568Z,78.64
2023-03-29T02:57:38.486Z,78.12
2023-03-29T02:58:38.492Z,77.92
2023-03-29T02:59:38.469Z,78.16
2023-03-29T03:00:38.495Z,77.85
2023-03-29T03:01:38.465Z,78.27
2023-03-29T03:02:38.539Z,78.58
2023-03-29T03:03:38.471Z,78.58
2023-03-29T03:04:38.467Z,78.78
2023-03-29T03:05:38.414Z,79.10
2023-03-29T03:06:38.423Z,79.30
2023-03-29T03:07:38.382Z,79.41
2023-03-29T03:08:38.390Z,79.41
2023-03-29T03:09:38.364Z,79.61
2023-03-29T03:10:38.388Z,79.92
2023-03-29T03:11:38.343Z,79.61
2023-03-29T03:12:38.364Z,79.82
2023-03-29T03:13:38.324Z,79.92
2023-03-29T03:14:38.327Z,80.44
2023-03-29T03:15:38.304Z,80.02
2023-03-29T03:16:38.350Z,80.54
2023-03-29T03:17:38.327Z,80.44
2023-03-29T03:18:38.284Z,80.89
2023-03-29T03:19:38.253Z,81.20
2023-03-29T03:20:38.279Z,80.79
2023-03-29T03:21:38.245Z,81.10
2023-03-29T03:22:38.243Z,80.89
2023-03-29T03:23:38.209Z,81.30
2023-03-29T03:24:38.228Z,81.20
2023-03-29T03:25:38.207Z,81.51
2023-03-29T03:26:38.260Z,81.62
2023-03-29T03:27:38.180Z,81.72
2023-03-29T03:28:38.172Z,81.82
2023-03-29T03:29:38.156Z,81.72
2023-03-29T03:30:38.147Z,81.93
2023-03-29T03:31:38.162Z,81.82
2023-03-29T03:32:38.139Z,82.03
2023-03-29T03:33:38.115Z,81.93
2023-03-29T03:34:38.110Z,82.03
2023-03-29T03:35:38.100Z,81.72
2023-03-29T03:36:38.101Z,81.72
2023-03-29T03:37:38.067Z,82.03
2023-03-29T03:38:38.087Z,82.03
2023-03-29T03:39:38.035Z,81.93
2023-03-29T03:40:38.115Z,82.03
2023-03-29T03:41:38.017Z,82.14
2023-03-29T03:42:38.066Z,82.45
2023-03-29T03:43:38.004Z,82.24
2023-03-29T03:44:38.011Z,82.24
2023-03-29T03:45:37.978Z,82.14
2023-03-29T03:46:38.004Z,82.03
2023-03-29T03:47:38.187Z,82.14
2023-03-29T03:48:37.980Z,82.03
2023-03-29T03:49:37.930Z,82.24
2023-03-29T03:50:37.934Z,82.14
2023-03-29T03:51:37.915Z,82.34
2023-03-29T03:52:37.932Z,82.24
2023-03-29T03:53:37.903Z,82.24
2023-03-29T03:54:37.905Z,82.24
2023-03-29T03:55:36.866Z,82.34
2023-03-29T03:56:37.957Z,82.34
2023-03-29T03:57:37.843Z,82.34
2023-03-29T03:58:37.876Z,82.55
2023-03-29T03:59:37.821Z,82.76
2023-03-29T04:00:37.870Z,82.86
2023-03-29T04:01:37.806Z,82.76
2023-03-29T04:02:37.849Z,82.97
2023-03-29T04:03:37.901Z,82.97
2023-03-29T04:04:37.806Z,83.38
2023-03-29T04:05:44.289Z,83.17
2023-03-29T04:06:37.764Z,83.28
2023-03-29T04:07:37.740Z,83.48
2023-03-29T04:08:37.772Z,83.48
2023-03-29T04:09:37.732Z,83.59
2023-03-29T04:10:37.738Z,83.69
2023-03-29T04:11:37.698Z,83.69
2023-03-29T04:12:37.716Z,83.90
2023-03-29T04:13:37.689Z,83.90
2023-03-29T04:14:37.700Z,83.90
2023-03-29T04:15:37.710Z,84.00
2023-03-29T04:16:37.665Z,84.00
2023-03-29T04:17:37.740Z,84.11
2023-03-29T04:18:37.805Z,84.31
2023-03-29T04:19:37.610Z,84.21
2023-03-29T04:20:37.643Z,84.31
2023-03-29T04:21:37.604Z,84.31
2023-03-29T04:22:37.612Z,84.21
2023-03-29T04:23:37.569Z,84.31
2023-03-29T04:24:37.585Z,84.31
2023-03-29T04:25:37.564Z,84.42
2023-03-29T04:26:37.554Z,84.52
2023-03-29T04:27:37.547Z,84.52
2023-03-29T04:28:37.534Z,84.63
2023-03-29T04:29:37.518Z,84.63
2023-03-29T04:30:37.530Z,84.83
2023-03-29T04:31:37.603Z,84.83
2023-03-29T04:32:37.551Z,85.04
2023-03-29T04:33:37.474Z,85.04
2023-03-29T04:34:37.490Z,84.94
2023-03-29T04:35:37.510Z,84.83
2023-03-29T04:36:37.421Z,84.94
2023-03-29T04:37:37.427Z,84.94
2023-03-29T04:38:37.408Z,85.14
2023-03-29T04:39:37.358Z,85.04
2023-03-29T04:40:37.374Z,85.14
2023-03-29T04:41:37.395Z,85.25
2023-03-29T04:42:37.540Z,85.25
2023-03-29T04:43:39.668Z,85.25
2023-03-29T04:44:37.404Z,85.46
2023-03-29T04:45:37.344Z,85.56
2023-03-29T04:46:37.382Z,85.46
2023-03-29T04:47:37.398Z,85.46
2023-03-29T04:48:37.340Z,85.56
2023-03-29T04:49:37.269Z,85.56
2023-03-29T04:50:37.270Z,85.77
2023-03-29T04:51:37.238Z,85.66
2023-03-29T04:52:37.251Z,85.77
2023-03-29T04:53:37.216Z,85.77
2023-03-29T04:54:37.231Z,85.77
2023-03-29T04:55:37.187Z,85.77
2023-03-29T04:56:37.214Z,85.77
2023-03-29T04:57:37.174Z,85.77
2023-03-29T04:58:37.189Z,85.87
2023-03-29T04:59:37.287Z,85.97
2023-03-29T05:00:36.157Z,85.97
2023-03-29T05:01:37.160Z,86.39
2023-03-29T05:02:37.141Z,86.29
2023-03-29T05:03:37.105Z,85.97
2023-03-29T05:04:37.160Z,85.94
2023-03-29T05:05:37.087Z,85.94
2023-03-29T05:06:37.084Z,86.04
2023-03-29T05:07:37.078Z,86.08
2023-03-29T05:08:37.063Z,86.15
2023-03-29T05:09:37.038Z,86.15
2023-03-29T05:10:37.052Z,86.15
2023-03-29T05:11:37.017Z,86.25
2023-03-29T05:12:37.037Z,86.15
2023-03-29T05:13:36.994Z,86.15
2023-03-29T05:14:37.010Z,86.25
2023-03-29T05:15:37.408Z,86.15
2023-03-29T05:16:37.010Z,86.15
2023-03-29T05:17:37.011Z,86.04
2023-03-29T05:18:36.976Z,85.94
2023-03-29T05:19:36.945Z,86.04
2023-03-29T05:20:36.948Z,85.73
2023-03-29T05:21:36.925Z,85.73
2023-03-29T05:22:36.913Z,85.63
2023-03-29T05:23:36.889Z,85.73
2023-03-29T05:24:36.912Z,85.73
2023-03-29T05:25:36.866Z,85.83
2023-03-29T05:26:36.890Z,85.83
2023-03-29T05:27:36.841Z,85.73
2023-03-29T05:28:36.858Z,85.63
2023-03-29T05:29:36.840Z,85.63
2023-03-29T05:30:36.830Z,85.83
2023-03-29T05:31:36.857Z,85.83
2023-03-29T05:32:36.963Z,86.04
2023-03-29T05:33:36.817Z,85.94
2023-03-29T05:34:36.788Z,85.94
2023-03-29T05:35:36.794Z,86.35
2023-03-29T05:36:36.771Z,86.04
2023-03-29T05:37:36.746Z,85.73
2023-03-29T05:38:36.781Z,85.42
2023-03-29T05:39:37.711Z,85.17
2023-03-29T05:40:36.740Z,85.21
2023-03-29T05:41:36.707Z,85.27
2023-03-29T05:42:36.708Z,85.27
2023-03-29T05:43:36.711Z,85.27
2023-03-29T05:44:36.660Z,85.17
2023-03-29T05:45:36.687Z,85.17
2023-03-29T05:46:36.641Z,84.96
2023-03-29T05:47:36.661Z,85.06
2023-03-29T05:48:36.637Z,85.06
2023-03-29T05:49:36.640Z,85.06
2023-03-29T05:50:36.602Z,84.86
2023-03-29T05:51:36.604Z,84.65
2023-03-29T05:52:36.576Z,84.55
2023-03-29T05:53:36.607Z,84.34
2023-03-29T05:54:36.557Z,84.34
2023-03-29T05:55:36.579Z,84.23
2023-03-29T05:56:36.546Z,84.03
2023-03-29T05:57:36.558Z,83.93
2023-03-29T05:58:36.513Z,84.03
2023-03-29T05:59:36.531Z,83.83
2023-03-29T06:00:36.496Z,83.78
2023-03-29T06:01:36.626Z,83.58
2023-03-29T06:02:36.558Z,83.37
2023-03-29T06:03:36.595Z,83.06
2023-03-29T06:04:36.672Z,82.86
2023-03-29T06:05:36.459Z,82.75
2023-03-29T06:06:36.432Z,82.29
2023-03-29T06:07:36.442Z,82.40
2023-03-29T06:08:36.413Z,82.19
2023-03-29T06:09:36.446Z,82.19
2023-03-29T06:10:36.387Z,82.19
2023-03-29T06:11:36.398Z,82.09
2023-03-29T06:12:36.369Z,81.54
2023-03-29T06:13:36.387Z,81.43
2023-03-29T06:14:36.351Z,81.12
2023-03-29T06:15:36.378Z,81.23
2023-03-29T06:16:36.396Z,80.91
2023-03-29T06:17:36.401Z,80.71
2023-03-29T06:18:36.311Z,80.60
2023-03-29T06:19:36.312Z,80.50
2023-03-29T06:20:36.298Z,80.50
2023-03-29T06:21:36.305Z,80.40
2023-03-29T06:22:36.263Z,80.19
2023-03-29T06:23:36.286Z,80.29
2023-03-29T06:24:36.240Z,80.29
2023-03-29T06:25:36.269Z,80.50
2023-03-29T06:26:36.229Z,80.29
2023-03-29T06:27:36.224Z,80.29
2023-03-29T06:28:36.200Z,80.26
2023-03-29T06:29:36.234Z,79.84
2023-03-29T06:30:36.176Z,79.94
2023-03-29T06:31:36.426Z,80.05
2023-03-29T06:32:36.225Z,80.15
2023-03-29T06:33:36.172Z,80.15
2023-03-29T06:34:38.480Z,80.26
2023-03-29T06:35:36.194Z,79.84
2023-03-29T06:36:36.119Z,79.84
2023-03-29T06:37:36.117Z,79.74
2023-03-29T06:38:36.099Z,79.84
2023-03-29T06:39:36.097Z,79.74
2023-03-29T06:40:36.074Z,79.74
2023-03-29T06:41:36.093Z,79.94
2023-03-29T06:42:36.067Z,79.63
2023-03-29T06:43:36.067Z,79.63
2023-03-29T06:44:36.030Z,79.53
2023-03-29T06:45:36.054Z,79.49
2023-03-29T06:46:36.084Z,79.49
2023-03-29T06:47:36.076Z,79.49
2023-03-29T06:48:35.993Z,79.08
2023-03-29T06:49:36.007Z,79.08
2023-03-29T06:50:35.985Z,79.19
2023-03-29T06:51:36.006Z,78.98
2023-03-29T06:52:35.956Z,79.19
2023-03-29T06:53:35.950Z,79.29
2023-03-29T06:54:35.923Z,78.88
2023-03-29T06:55:35.940Z,79.08
2023-03-29T06:56:35.903Z,79.08
2023-03-29T06:57:35.936Z,78.94
2023-03-29T06:58:35.887Z,78.84
2023-03-29T06:59:35.884Z,78.53
2023-03-29T07:00:35.913Z,78.32
2023-03-29T07:01:35.900Z,78.39
2023-03-29T07:02:35.884Z,78.39
2023-03-29T07:03:35.875Z,78.28
2023-03-29T07:04:35.876Z,77.67
2023-03-29T07:05:35.818Z,77.04
2023-03-29T07:06:35.790Z,77.36
2023-03-29T07:07:35.796Z,77.15
2023-03-29T07:08:35.769Z,77.22
2023-03-29T07:09:35.802Z,77.42
2023-03-29T07:10:35.748Z,77.22
2023-03-29T07:11:35.784Z,77.01
2023-03-29T07:12:35.726Z,76.81
2023-03-29T07:13:35.757Z,76.70
2023-03-29T07:14:35.706Z,77.36
2023-03-29T07:15:35.740Z,77.53
2023-03-29T07:16:35.753Z,77.01
2023-03-29T07:17:35.703Z,76.81
2023-03-29T07:18:35.662Z,76.81
2023-03-29T07:19:35.667Z,76.70
2023-03-29T07:20:35.645Z,76.56
2023-03-29T07:21:37.885Z,76.25
2023-03-29T07:22:35.625Z,76.04
2023-03-29T07:23:35.625Z,75.84
2023-03-29T07:24:35.596Z,75.74
2023-03-29T07:25:35.609Z,75.22
2023-03-29T07:26:35.593Z,75.18
2023-03-29T07:27:35.586Z,75.18
2023-03-29T07:28:35.556Z,74.98
2023-03-29T07:29:35.572Z,75.29
2023-03-29T07:30:35.540Z,75.09
2023-03-29T07:31:35.540Z,74.53
2023-03-29T07:32:35.577Z,74.12
2023-03-29T07:33:35.635Z,73.81
2023-03-29T07:34:35.487Z,73.91
2023-03-29T07:35:35.536Z,73.57
2023-03-29T07:36:35.481Z,73.78
2023-03-29T07:37:35.473Z,73.36
2023-03-29T07:38:35.446Z,72.81
2023-03-29T07:39:35.467Z,72.51
2023-03-29T07:40:35.424Z,72.47
2023-03-29T07:41:35.434Z,72.27
2023-03-29T07:42:35.415Z,71.31
2023-03-29T07:43:35.409Z,70.48
2023-03-29T07:44:35.380Z,70.69
2023-03-29T07:45:35.479Z,70.93
2023-03-29T07:46:35.357Z,71.34
2023-03-29T07:47:35.436Z,71.41
2023-03-29T07:48:35.347Z,71.00
2023-03-29T07:49:35.362Z,70.56
2023-03-29T07:50:35.316Z,70.35
2023-03-29T07:51:35.341Z,69.29
2023-03-29T07:52:35.307Z,69.39
2023-03-29T07:53:35.328Z,68.13
2023-03-29T07:54:35.273Z,68.54
2023-03-29T07:55:35.289Z,67.99
2023-03-29T07:56:35.251Z,67.65
2023-03-29T07:57:35.270Z,66.73
2023-03-29T07:58:35.228Z,65.88
2023-03-29T07:59:35.255Z,65.57
2023-03-29T08:00:35.232Z,65.36
2023-03-29T08:01:35.213Z,65.36
2023-03-29T08:02:35.197Z,65.26
2023-03-29T08:03:35.248Z,65.16
2023-03-29T08:04:35.265Z,65.54
2023-03-29T08:05:41.527Z,64.28
2023-03-29T08:06:35.141Z,64.07
2023-03-29T08:07:35.147Z,63.64
2023-03-29T08:08:35.124Z,63.29
2023-03-29T08:09:35.131Z,62.35
2023-03-29T08:10:35.111Z,61.22
2023-03-29T08:11:35.114Z,61.55
2023-03-29T08:12:35.084Z,62.17
2023-03-29T08:13:35.080Z,61.96
2023-03-29T08:14:35.053Z,61.09
2023-03-29T08:15:35.084Z,60.01
2023-03-29T08:16:35.055Z,57.81
2023-03-29T08:17:35.116Z,56.96
2023-03-29T08:18:35.112Z,56.02
2023-03-29T08:19:35.016Z,55.38
2023-03-29T08:20:34.992Z,54.94
2023-03-29T08:21:35.011Z,54.49
2023-03-29T08:22:34.970Z,53.16
2023-03-29T08:23:34.991Z,52.15
2023-03-29T08:24:34.946Z,52.88
2023-03-29T08:25:34.959Z,53.92
2023-03-29T08:26:34.941Z,54.05
2023-03-29T08:27:34.955Z,54.77
2023-03-29T08:28:34.902Z,54.64
2023-03-29T08:29:34.913Z,53.80
2023-03-29T08:30:34.890Z,53.57
2023-03-29T08:31:34.956Z,53.47
2023-03-29T08:32:34.873Z,53.65
2023-03-29T08:33:34.959Z,52.53
2023-03-29T08:34:34.860Z,52.45
2023-03-29T08:35:34.920Z,52.98
2023-03-29T08:36:34.839Z,53.42
2023-03-29T08:37:34.821Z,53.27
2023-03-29T08:38:34.797Z,52.20
2023-03-29T08:39:34.859Z,51.48
2023-03-29T08:40:34.800Z,50.65
2023-03-29T08:41:34.807Z,50.75
2023-03-29T08:42:34.807Z,50.93
2023-03-29T08:43:34.848Z,50.52
2023-03-29T08:44:34.729Z,50.09
2023-03-29T08:45:34.745Z,50.12
2023-03-29T08:46:35.432Z,50.70
2023-03-29T08:47:34.755Z,49.48
2023-03-29T08:48:34.688Z,51.26
2023-03-29T08:49:34.695Z,52.40
2023-03-29T08:50:34.661Z,51.89
2023-03-29T08:51:34.681Z,52.50
2023-03-29T08:52:34.644Z,51.92
2023-03-29T08:53:34.661Z,52.33
2023-03-29T08:54:34.612Z,52.45
2023-03-29T08:55:34.638Z,52.66
2023-03-29T08:56:34.593Z,52.78
2023-03-29T08:57:34.595Z,53.19
2023-03-29T08:58:34.595Z,53.39
2023-03-29T08:59:34.579Z,53.62
2023-03-29T09:00:34.548Z,53.83
2023-03-29T09:01:34.591Z,54.24
2023-03-29T09:02:34.631Z,54.33
2023-03-29T09:03:34.592Z,52.73
2023-03-29T09:04:34.517Z,51.03
2023-03-29T09:05:34.537Z,49.54
2023-03-29T09:06:34.480Z,48.58
2023-03-29T09:07:34.487Z,46.81
2023-03-29T09:08:34.460Z,46.79
2023-03-29T09:09:34.477Z,47.09
2023-03-29T09:10:34.435Z,46.69
2023-03-29T09:11:34.459Z,46.30
2023-03-29T09:12:36.485Z,46.71
2023-03-29T09:13:34.471Z,47.14
2023-03-29T09:14:34.408Z,47.81
2023-03-29T09:15:34.406Z,48.30
2023-03-29T09:16:34.451Z,47.46
2023-03-29T09:17:34.411Z,48.42
2023-03-29T09:18:34.352Z,49.13
2023-03-29T09:19:34.369Z,49.01
2023-03-29T09:20:34.337Z,48.40
2023-03-29T09:21:34.345Z,48.50
2023-03-29T09:22:34.303Z,48.80
2023-03-29T09:23:34.307Z,48.10
2023-03-29T09:24:34.287Z,47.99
2023-03-29T09:25:40.996Z,48.55
2023-03-29T09:26:34.285Z,49.48
2023-03-29T09:27:34.275Z,50.01
2023-03-29T09:28:34.237Z,51.23
2023-03-29T09:29:34.264Z,50.40
2023-03-29T09:30:34.223Z,50.60
2023-03-29T09:31:34.248Z,49.99
2023-03-29T09:32:34.203Z,50.37
2023-03-29T09:33:34.212Z,50.07
2023-03-29T09:34:34.189Z,49.76
2023-03-29T09:35:34.212Z,49.18
2023-03-29T09:36:34.164Z,49.61
2023-03-29T09:37:34.163Z,50.22
2023-03-29T09:38:34.156Z,50.22
2023-03-29T09:39:34.122Z,50.70
2023-03-29T09:40:34.145Z,50.70
2023-03-29T09:41:34.106Z,50.09
2023-03-29T09:42:34.111Z,49.66
2023-03-29T09:43:34.079Z,50.12
2023-03-29T09:44:34.092Z,50.01
2023-03-29T09:45:34.102Z,50.65
2023-03-29T09:46:34.054Z,48.80
2023-03-29T09:47:34.054Z,48.00
2023-03-29T09:48:34.035Z,48.08
2023-03-29T09:49:34.003Z,47.86
2023-03-29T09:50:34.100Z,47.75
2023-03-29T09:51:33.978Z,47.35
2023-03-29T09:52:34.008Z,46.64
2023-03-29T09:53:33.961Z,47.35
2023-03-29T09:54:33.966Z,47.55
2023-03-29T09:55:33.992Z,47.55
2023-03-29T09:56:33.958Z,47.35
2023-03-29T09:57:33.946Z,46.97
2023-03-29T09:58:33.940Z,47.37
2023-03-29T09:59:33.906Z,47.98
2023-03-29T10:00:33.917Z,47.88
2023-03-29T10:01:33.905Z,47.80
2023-03-29T10:02:33.909Z,47.80
2023-03-29T10:03:33.859Z,48.31
2023-03-29T10:04:33.900Z,47.80
2023-03-29T10:05:33.835Z,48.11
2023-03-29T10:06:33.836Z,48.31
2023-03-29T10:07:33.810Z,48.31
2023-03-29T10:08:33.824Z,48.64
2023-03-29T10:09:33.787Z,48.33
2023-03-29T10:10:33.793Z,48.74
2023-03-29T10:11:33.764Z,49.17
2023-03-29T10:12:33.770Z,48.96
2023-03-29T10:13:33.772Z,48.35
2023-03-29T10:14:33.770Z,48.35
2023-03-29T10:15:33.739Z,48.03
2023-03-29T10:16:33.765Z,47.72
2023-03-29T10:17:33.707Z,48.05
2023-03-29T10:18:33.707Z,48.15
2023-03-29T10:19:33.688Z,48.46
2023-03-29T10:20:33.699Z,48.15
2023-03-29T10:21:33.662Z,47.85
2023-03-29T10:22:33.678Z,47.95
2023-03-29T10:23:33.640Z,48.15
2023-03-29T10:24:33.651Z,48.96
2023-03-29T10:25:33.625Z,49.04
2023-03-29T10:26:33.645Z,48.54
2023-03-29T10:27:33.594Z,47.42
2023-03-29T10:28:33.593Z,48.13
2023-03-29T10:29:33.593Z,48.03
2023-03-29T10:30:33.585Z,48.43
2023-03-29T10:31:33.732Z,48.03
2023-03-29T10:32:33.698Z,48.43
2023-03-29T10:33:33.530Z,48.64
2023-03-29T10:34:33.534Z,48.49
2023-03-29T10:35:33.551Z,47.58
2023-03-29T10:36:33.508Z,46.94
2023-03-29T10:37:33.480Z,46.94
2023-03-29T10:38:33.495Z,46.51
2023-03-29T10:39:33.457Z,46.31
2023-03-29T10:40:33.505Z,46.92
2023-03-29T10:41:33.433Z,46.19
2023-03-29T10:42:33.454Z,46.29
2023-03-29T10:43:33.442Z,46.39
2023-03-29T10:44:33.494Z,45.07
2023-03-29T10:45:33.400Z,45.48
2023-03-29T10:46:33.422Z,45.48
2023-03-29T10:47:33.401Z,46.41
2023-03-29T10:48:33.386Z,46.59
2023-03-29T10:49:33.387Z,46.19
2023-03-29T10:50:33.363Z,46.70
2023-03-29T10:51:33.333Z,47.59
2023-03-29T10:52:33.344Z,45.97
2023-03-29T10:53:33.298Z,45.25
2023-03-29T10:54:33.307Z,45.86
2023-03-29T10:55:33.363Z,45.56
2023-03-29T10:56:33.313Z,45.76
2023-03-29T10:57:33.311Z,46.06
2023-03-29T10:58:33.258Z,46.80
2023-03-29T10:59:33.241Z,47.20
2023-03-29T11:00:33.254Z,46.49
2023-03-29T11:01:33.259Z,46.59
2023-03-29T11:02:33.331Z,46.98
2023-03-29T11:03:33.230Z,46.67
2023-03-29T11:04:33.207Z,46.27
2023-03-29T11:05:33.171Z,46.06
2023-03-29T11:06:33.169Z,45.23
2023-03-29T11:07:33.160Z,44.93
2023-03-29T11:08:33.170Z,45.03
2023-03-29T11:09:33.124Z,45.13
2023-03-29T11:10:33.127Z,44.90
2023-03-29T11:11:33.114Z,44.90
2023-03-29T11:12:33.142Z,44.58
2023-03-29T11:13:33.090Z,44.46
2023-03-29T11:14:33.092Z,44.24
2023-03-29T11:15:33.051Z,44.24
2023-03-29T11:16:33.084Z,43.32
2023-03-29T11:17:33.080Z,44.26
2023-03-29T11:18:33.043Z,44.36
2023-03-29T11:19:33.015Z,44.03
2023-03-29T11:20:33.031Z,43.73
2023-03-29T11:21:32.981Z,43.73
2023-03-29T11:22:32.988Z,43.23
2023-03-29T11:23:32.978Z,43.32
2023-03-29T11:24:32.972Z,43.65
2023-03-29T11:25:32.940Z,44.26
2023-03-29T11:26:32.947Z,44.07
2023-03-29T11:27:32.916Z,43.98
2023-03-29T11:28:32.936Z,45.50
2023-03-29T11:29:32.908Z,44.66
2023-03-29T11:30:32.915Z,43.75
2023-03-29T11:31:32.944Z,44.06
2023-03-29T11:32:32.902Z,43.63
2023-03-29T11:33:32.860Z,43.43
2023-03-29T11:34:32.893Z,44.03
2023-03-29T11:35:32.869Z,43.41
2023-03-29T11:36:32.855Z,43.02
2023-03-29T11:37:32.814Z,43.32
2023-03-29T11:38:32.827Z,43.93
2023-03-29T11:39:32.804Z,43.81
2023-03-29T11:40:32.824Z,43.20
2023-03-29T11:41:32.774Z,43.10
2023-03-29T11:42:32.770Z,43.29
2023-03-29T11:43:32.746Z,43.29
2023-03-29T11:44:32.753Z,42.68
2023-03-29T11:45:32.738Z,42.68
2023-03-29T11:46:32.811Z,42.66
2023-03-29T11:47:32.805Z,42.54
2023-03-29T11:48:32.703Z,42.47
2023-03-29T11:49:32.682Z,42.47
2023-03-29T11:50:35.332Z,42.88
2023-03-29T11:51:32.676Z,42.58
2023-03-29T11:52:32.724Z,42.86
2023-03-29T11:53:32.633Z,43.77
2023-03-29T11:54:32.656Z,43.16
2023-03-29T11:55:32.626Z,43.26
2023-03-29T11:56:32.623Z,43.87
2023-03-29T11:57:32.588Z,43.67
2023-03-29T11:58:33.192Z,42.74
2023-03-29T11:59:32.573Z,42.01
2023-03-29T12:00:32.600Z,41.16
2023-03-29T12:01:32.558Z,40.46
2023-03-29T12:02:32.632Z,40.16
2023-03-29T12:03:32.597Z,40.78
2023-03-29T12:04:32.625Z,40.74
2023-03-29T12:05:32.500Z,40.00
2023-03-29T12:06:32.530Z,39.78
2023-03-29T12:07:32.491Z,39.25
2023-03-29T12:08:32.490Z,38.23
2023-03-29T12:09:32.507Z,37.81
2023-03-29T12:10:33.692Z,37.21
2023-03-29T12:11:32.447Z,37.41
2023-03-29T12:12:32.457Z,38.55
2023-03-29T12:13:32.427Z,38.57
2023-03-29T12:14:32.424Z,38.79
2023-03-29T12:15:32.395Z,39.21
2023-03-29T12:16:32.502Z,40.14
2023-03-29T12:17:32.396Z,40.66
2023-03-29T12:18:32.418Z,40.84
2023-03-29T12:19:32.354Z,40.23
2023-03-29T12:20:32.369Z,40.12
2023-03-29T12:21:32.341Z,40.03
2023-03-29T12:22:32.367Z,39.73
2023-03-29T12:23:32.343Z,40.66
2023-03-29T12:24:32.334Z,41.71
2023-03-29T12:25:32.284Z,42.13
2023-03-29T12:26:32.290Z,42.03
2023-03-29T12:27:32.264Z,42.41
2023-03-29T12:28:32.264Z,42.40
2023-03-29T12:29:32.287Z,41.69
2023-03-29T12:30:34.259Z,41.79
2023-03-29T12:31:32.254Z,42.80
2023-03-29T12:32:32.276Z,42.41
2023-03-29T12:33:32.225Z,43.14
2023-03-29T12:34:32.207Z,43.65
2023-03-29T12:35:32.243Z,43.37
2023-03-29T12:36:32.162Z,43.89
2023-03-29T12:37:32.231Z,44.27
2023-03-29T12:38:32.144Z,43.57
2023-03-29T12:39:32.162Z,43.44
2023-03-29T12:40:32.130Z,43.04
2023-03-29T12:41:32.144Z,43.23
2023-03-29T12:42:32.100Z,42.01
2023-03-29T12:43:32.133Z,42.52
2023-03-29T12:44:32.204Z,42.21
2023-03-29T12:45:32.153Z,43.04
2023-03-29T12:46:32.111Z,43.69
2023-03-29T12:47:32.070Z,44.80
2023-03-29T12:48:32.041Z,44.88
2023-03-29T12:49:32.059Z,44.60
2023-03-29T12:50:32.025Z,44.88
2023-03-29T12:51:32.017Z,44.07
2023-03-29T12:52:32.002Z,43.16